sensor_id;sensor_type;location;lat;lon;timestamp;pressure;altitude;pressure_sealevel;temperature;humidity
20009;BME280;10165;42.662;23.260;2022-08-01T00:00:05;94075.53;;;23.32;42.55
20009;BME280;10165;42.662;23.260;2022-08-01T00:02:38;94079.59;;;22.92;44.70
20009;BME280;10165;42.662;23.260;2022-08-01T00:05:06;94083.00;;;22.60;44.21
20009;BME280;10165;42.662;23.260;2022-08-01T00:07:34;94074.22;;;22.88;44.01
20009;BME280;10165;42.662;23.260;2022-08-01T00:10:06;94075.72;;;23.09;43.80
20009;BME280;10165;42.662;23.260;2022-08-01T00:12:33;94072.03;;;23.00;43.98
20009;BME280;10165;42.662;23.260;2022-08-01T00:15:00;94075.44;;;22.88;43.47
20009;BME280;10165;42.662;23.260;2022-08-01T00:17:27;94071.13;;;23.22;43.10
20009;BME280;10165;42.662;23.260;2022-08-01T00:19:54;94076.00;;;22.79;44.01
20009;BME280;10165;42.662;23.260;2022-08-01T00:22:20;94080.78;;;22.91;43.95
20009;BME280;10165;42.662;23.260;2022-08-01T00:24:47;94082.00;;;22.51;43.49
20009;BME280;10165;42.662;23.260;2022-08-01T00:27:14;94081.69;;;22.84;43.44
20009;BME280;10165;42.662;23.260;2022-08-01T00:29:41;94074.28;;;22.49;45.08
20009;BME280;10165;42.662;23.260;2022-08-01T00:32:30;94069.53;;;22.73;44.00
20009;BME280;10165;42.662;23.260;2022-08-01T00:34:57;94067.31;;;22.68;43.79
20009;BME280;10165;42.662;23.260;2022-08-01T00:37:23;94067.84;;;22.59;44.41
20009;BME280;10165;42.662;23.260;2022-08-01T00:39:50;94076.09;;;22.56;44.27
20009;BME280;10165;42.662;23.260;2022-08-01T00:42:17;94076.47;;;22.18;45.50
20009;BME280;10165;42.662;23.260;2022-08-01T00:44:44;94068.22;;;22.22;45.62
20009;BME280;10165;42.662;23.260;2022-08-01T00:47:10;94070.72;;;22.13;46.13
20009;BME280;10165;42.662;23.260;2022-08-01T00:49:37;94071.56;;;22.10;47.08
20009;BME280;10165;42.662;23.260;2022-08-01T00:52:05;94066.34;;;22.19;46.31
20009;BME280;10165;42.662;23.260;2022-08-01T00:54:33;94070.72;;;22.32;45.28
20009;BME280;10165;42.662;23.260;2022-08-01T00:57:00;94065.72;;;22.11;45.57
20009;BME280;10165;42.662;23.260;2022-08-01T00:59:26;94070.72;;;21.93;47.09
20009;BME280;10165;42.662;23.260;2022-08-01T01:01:54;94068.00;;;21.70;47.40
20009;BME280;10165;42.662;23.260;2022-08-01T01:04:22;94070.06;;;20.89;49.60
20009;BME280;10165;42.662;23.260;2022-08-01T01:07:28;94059.03;;;21.50;46.65
20009;BME280;10165;42.662;23.260;2022-08-01T01:10:06;94057.66;;;21.84;45.11
20009;BME280;10165;42.662;23.260;2022-08-01T01:13:05;94061.47;;;21.87;44.01
20009;BME280;10165;42.662;23.260;2022-08-01T01:15:41;94055.47;;;22.19;43.99
20009;BME280;10165;42.662;23.260;2022-08-01T01:18:30;94055.66;;;22.08;43.97
20009;BME280;10165;42.662;23.260;2022-08-01T01:24:33;94054.41;;;21.00;47.29
20009;BME280;10165;42.662;23.260;2022-08-01T01:27:16;94052.34;;;21.08;46.56
20009;BME280;10165;42.662;23.260;2022-08-01T01:29:54;94043.66;;;21.39;45.28
20009;BME280;10165;42.662;23.260;2022-08-01T01:32:31;94041.72;;;21.17;45.89
20009;BME280;10165;42.662;23.260;2022-08-01T01:35:05;94038.47;;;21.49;44.31
20009;BME280;10165;42.662;23.260;2022-08-01T01:37:34;94029.44;;;21.98;42.44
20009;BME280;10165;42.662;23.260;2022-08-01T01:40:03;94024.06;;;22.14;42.29
20009;BME280;10165;42.662;23.260;2022-08-01T01:42:31;94027.34;;;22.06;41.64
20009;BME280;10165;42.662;23.260;2022-08-01T01:45:03;94036.34;;;21.36;40.92
20009;BME280;10165;42.662;23.260;2022-08-01T01:47:31;94030.56;;;21.77;40.96
20009;BME280;10165;42.662;23.260;2022-08-01T01:49:59;94028.56;;;21.62;40.60
20009;BME280;10165;42.662;23.260;2022-08-01T01:52:29;94026.59;;;21.82;38.33
20009;BME280;10165;42.662;23.260;2022-08-01T01:54:58;94016.88;;;22.04;38.28
20009;BME280;10165;42.662;23.260;2022-08-01T01:57:27;94014.88;;;22.44;37.05
20009;BME280;10165;42.662;23.260;2022-08-01T01:59:57;94011.81;;;22.78;36.19
20009;BME280;10165;42.662;23.260;2022-08-01T02:02:24;94010.16;;;22.64;35.79
20009;BME280;10165;42.662;23.260;2022-08-01T02:04:53;94010.50;;;22.66;35.63
20009;BME280;10165;42.662;23.260;2022-08-01T02:07:24;94019.09;;;22.09;37.21
20009;BME280;10165;42.662;23.260;2022-08-01T02:09:54;94019.59;;;22.04;38.06
20009;BME280;10165;42.662;23.260;2022-08-01T02:12:22;94017.28;;;22.22;38.27
20009;BME280;10165;42.662;23.260;2022-08-01T02:14:52;94012.72;;;22.00;38.98
20009;BME280;10165;42.662;23.260;2022-08-01T02:17:21;94014.38;;;21.93;38.87
20009;BME280;10165;42.662;23.260;2022-08-01T02:19:50;94002.75;;;21.50;39.51
20009;BME280;10165;42.662;23.260;2022-08-01T02:22:23;94012.38;;;20.81;42.59
20009;BME280;10165;42.662;23.260;2022-08-01T02:25:03;94005.88;;;20.75;43.18
20009;BME280;10165;42.662;23.260;2022-08-01T02:27:43;93993.97;;;21.19;41.76
20009;BME280;10165;42.662;23.260;2022-08-01T02:30:13;94004.09;;;20.92;41.47
20009;BME280;10165;42.662;23.260;2022-08-01T02:32:45;94003.19;;;20.48;43.22
20009;BME280;10165;42.662;23.260;2022-08-01T02:35:28;94004.19;;;20.31;42.76
20009;BME280;10165;42.662;23.260;2022-08-01T02:37:57;94003.41;;;21.11;41.64
20009;BME280;10165;42.662;23.260;2022-08-01T02:40:28;94001.53;;;21.05;41.59
20009;BME280;10165;42.662;23.260;2022-08-01T02:42:56;94017.00;;;20.27;43.15
20009;BME280;10165;42.662;23.260;2022-08-01T02:45:26;94018.66;;;19.87;43.84
20009;BME280;10165;42.662;23.260;2022-08-01T02:48:05;94009.31;;;20.22;43.47
20009;BME280;10165;42.662;23.260;2022-08-01T02:50:35;94002.84;;;20.46;42.75
20009;BME280;10165;42.662;23.260;2022-08-01T02:53:03;93992.63;;;21.04;40.35
20009;BME280;10165;42.662;23.260;2022-08-01T02:55:32;94003.91;;;19.92;43.10
20009;BME280;10165;42.662;23.260;2022-08-01T02:58:01;93993.47;;;20.74;41.60
20009;BME280;10165;42.662;23.260;2022-08-01T03:00:29;94007.97;;;20.07;43.50
20009;BME280;10165;42.662;23.260;2022-08-01T03:02:58;94002.50;;;20.41;42.44
20009;BME280;10165;42.662;23.260;2022-08-01T03:05:26;93997.16;;;20.87;41.11
20009;BME280;10165;42.662;23.260;2022-08-01T03:07:55;94000.78;;;20.81;41.69
20009;BME280;10165;42.662;23.260;2022-08-01T03:10:29;93999.34;;;20.73;41.61
20009;BME280;10165;42.662;23.260;2022-08-01T03:12:58;93994.16;;;21.05;40.42
20009;BME280;10165;42.662;23.260;2022-08-01T03:15:27;93996.56;;;21.26;40.08
20009;BME280;10165;42.662;23.260;2022-08-01T03:17:59;93997.50;;;21.16;40.06
20009;BME280;10165;42.662;23.260;2022-08-01T03:20:29;94006.88;;;21.35;39.27
20009;BME280;10165;42.662;23.260;2022-08-01T03:22:57;93996.09;;;21.05;40.56
20009;BME280;10165;42.662;23.260;2022-08-01T03:25:25;93995.63;;;21.10;40.13
20009;BME280;10165;42.662;23.260;2022-08-01T03:27:59;94001.56;;;21.28;40.40
20009;BME280;10165;42.662;23.260;2022-08-01T03:30:27;94011.69;;;20.77;41.58
20009;BME280;10165;42.662;23.260;2022-08-01T03:32:56;94011.38;;;20.72;41.64
20009;BME280;10165;42.662;23.260;2022-08-01T03:35:26;94002.81;;;21.23;40.44
20009;BME280;10165;42.662;23.260;2022-08-01T03:37:56;94009.72;;;21.28;40.61
20009;BME280;10165;42.662;23.260;2022-08-01T03:40:47;94012.91;;;20.73;41.64
20009;BME280;10165;42.662;23.260;2022-08-01T03:43:40;94014.22;;;20.88;41.90
20009;BME280;10165;42.662;23.260;2022-08-01T03:46:11;94011.50;;;20.88;41.78
20009;BME280;10165;42.662;23.260;2022-08-01T03:48:43;94008.22;;;21.00;41.53
20009;BME280;10165;42.662;23.260;2022-08-01T03:51:14;94005.19;;;21.21;41.45
20009;BME280;10165;42.662;23.260;2022-08-01T03:53:42;94001.47;;;21.08;41.38
20009;BME280;10165;42.662;23.260;2022-08-01T03:56:12;94001.47;;;21.55;39.75
20009;BME280;10165;42.662;23.260;2022-08-01T03:58:43;94002.19;;;20.62;42.24
20009;BME280;10165;42.662;23.260;2022-08-01T04:01:16;94016.69;;;20.79;42.34
20009;BME280;10165;42.662;23.260;2022-08-01T04:03:43;94014.84;;;20.72;42.94
20009;BME280;10165;42.662;23.260;2022-08-01T04:06:10;94003.72;;;20.90;43.30
20009;BME280;10165;42.662;23.260;2022-08-01T04:08:40;94004.28;;;21.28;42.09
20009;BME280;10165;42.662;23.260;2022-08-01T04:11:08;94007.47;;;21.66;40.49
20009;BME280;10165;42.662;23.260;2022-08-01T04:13:35;94004.25;;;21.51;40.42
20009;BME280;10165;42.662;23.260;2022-08-01T04:16:04;94000.44;;;21.49;40.10
20009;BME280;10165;42.662;23.260;2022-08-01T04:18:31;94003.09;;;21.72;39.86
20009;BME280;10165;42.662;23.260;2022-08-01T04:20:58;94002.13;;;21.82;39.60
20009;BME280;10165;42.662;23.260;2022-08-01T04:23:26;94004.06;;;21.81;39.09
20009;BME280;10165;42.662;23.260;2022-08-01T04:25:54;94006.22;;;21.70;41.00
20009;BME280;10165;42.662;23.260;2022-08-01T04:28:22;94018.72;;;21.68;40.95
20009;BME280;10165;42.662;23.260;2022-08-01T04:30:52;94015.91;;;21.52;41.43
20009;BME280;10165;42.662;23.260;2022-08-01T04:33:28;94012.38;;;21.74;41.26
20009;BME280;10165;42.662;23.260;2022-08-01T04:35:58;94011.09;;;22.02;40.74
20009;BME280;10165;42.662;23.260;2022-08-01T04:38:31;94002.97;;;21.79;41.08
20009;BME280;10165;42.662;23.260;2022-08-01T04:40:58;94009.13;;;22.03;40.44
20009;BME280;10165;42.662;23.260;2022-08-01T04:43:36;94006.59;;;22.31;40.09
20009;BME280;10165;42.662;23.260;2022-08-01T04:46:03;94017.81;;;21.74;41.52
20009;BME280;10165;42.662;23.260;2022-08-01T04:48:31;94014.13;;;21.65;41.26
20009;BME280;10165;42.662;23.260;2022-08-01T04:51:00;94008.59;;;22.11;39.89
20009;BME280;10165;42.662;23.260;2022-08-01T04:53:27;93997.63;;;22.15;39.49
20009;BME280;10165;42.662;23.260;2022-08-01T04:55:54;94002.22;;;21.98;39.30
20009;BME280;10165;42.662;23.260;2022-08-01T04:58:22;94007.38;;;21.92;40.77
20009;BME280;10165;42.662;23.260;2022-08-01T05:00:48;94005.91;;;22.27;40.61
20009;BME280;10165;42.662;23.260;2022-08-01T05:03:15;94005.09;;;22.47;40.27
20009;BME280;10165;42.662;23.260;2022-08-01T05:05:42;94010.91;;;21.50;41.85
20009;BME280;10165;42.662;23.260;2022-08-01T05:08:08;94005.47;;;21.89;41.09
20009;BME280;10165;42.662;23.260;2022-08-01T05:10:36;94002.69;;;22.32;40.16
20009;BME280;10165;42.662;23.260;2022-08-01T05:13:03;93999.22;;;21.92;38.67
20009;BME280;10165;42.662;23.260;2022-08-01T05:15:30;93999.84;;;22.20;39.55
20009;BME280;10165;42.662;23.260;2022-08-01T05:17:57;93994.41;;;22.56;39.30
20009;BME280;10165;42.662;23.260;2022-08-01T05:20:24;93997.78;;;22.79;39.28
20009;BME280;10165;42.662;23.260;2022-08-01T05:22:50;94006.28;;;22.81;39.61
20009;BME280;10165;42.662;23.260;2022-08-01T05:25:17;94004.91;;;22.37;38.96
20009;BME280;10165;42.662;23.260;2022-08-01T05:28:04;94003.09;;;22.67;40.07
20009;BME280;10165;42.662;23.260;2022-08-01T05:30:31;94006.41;;;22.58;40.36
20009;BME280;10165;42.662;23.260;2022-08-01T05:32:58;94003.03;;;22.70;39.40
20009;BME280;10165;42.662;23.260;2022-08-01T05:35:25;94002.91;;;22.22;40.97
20009;BME280;10165;42.662;23.260;2022-08-01T05:38:11;94001.31;;;22.05;39.18
20009;BME280;10165;42.662;23.260;2022-08-01T05:40:40;94000.25;;;22.38;40.25
20009;BME280;10165;42.662;23.260;2022-08-01T05:43:07;94010.66;;;22.59;40.31
20009;BME280;10165;42.662;23.260;2022-08-01T05:45:33;94010.41;;;23.22;39.37
20009;BME280;10165;42.662;23.260;2022-08-01T05:48:00;94009.03;;;22.98;39.44
20009;BME280;10165;42.662;23.260;2022-08-01T05:50:27;94012.03;;;22.67;39.36
20009;BME280;10165;42.662;23.260;2022-08-01T05:52:54;94023.16;;;22.76;38.92
20009;BME280;10165;42.662;23.260;2022-08-01T05:55:20;94018.91;;;23.08;39.44
20009;BME280;10165;42.662;23.260;2022-08-01T05:57:47;94017.09;;;22.69;39.86
20009;BME280;10165;42.662;23.260;2022-08-01T06:00:14;94016.75;;;22.47;40.04
20009;BME280;10165;42.662;23.260;2022-08-01T06:02:42;94015.56;;;22.68;39.12
20009;BME280;10165;42.662;23.260;2022-08-01T06:05:10;94006.22;;;23.01;39.55
20009;BME280;10165;42.662;23.260;2022-08-01T06:07:39;94010.72;;;23.40;38.54
20009;BME280;10165;42.662;23.260;2022-08-01T06:10:07;94014.47;;;23.30;37.92
20009;BME280;10165;42.662;23.260;2022-08-01T06:12:34;94016.44;;;23.29;38.41
20009;BME280;10165;42.662;23.260;2022-08-01T06:15:03;94011.44;;;22.96;38.35
20009;BME280;10165;42.662;23.260;2022-08-01T06:17:30;94016.97;;;22.56;39.76
20009;BME280;10165;42.662;23.260;2022-08-01T06:19:57;94014.81;;;22.83;38.81
20009;BME280;10165;42.662;23.260;2022-08-01T06:22:24;94010.81;;;22.88;38.74
20009;BME280;10165;42.662;23.260;2022-08-01T06:24:51;94018.47;;;23.25;38.26
20009;BME280;10165;42.662;23.260;2022-08-01T06:27:18;94011.50;;;23.24;38.58
20009;BME280;10165;42.662;23.260;2022-08-01T06:29:48;94011.06;;;22.58;39.12
20009;BME280;10165;42.662;23.260;2022-08-01T06:32:20;94024.03;;;23.22;38.48
20009;BME280;10165;42.662;23.260;2022-08-01T06:34:54;94028.09;;;22.62;39.17
20009;BME280;10165;42.662;23.260;2022-08-01T06:37:21;94018.13;;;22.91;39.35
20009;BME280;10165;42.662;23.260;2022-08-01T06:39:49;94015.72;;;22.77;38.74
20009;BME280;10165;42.662;23.260;2022-08-01T06:42:16;94009.53;;;22.93;38.73
20009;BME280;10165;42.662;23.260;2022-08-01T06:44:44;94009.63;;;23.05;39.84
20009;BME280;10165;42.662;23.260;2022-08-01T06:47:10;94020.69;;;22.82;39.55
20009;BME280;10165;42.662;23.260;2022-08-01T06:49:37;94002.41;;;22.99;38.91
20009;BME280;10165;42.662;23.260;2022-08-01T06:52:04;94016.69;;;23.03;39.68
20009;BME280;10165;42.662;23.260;2022-08-01T06:54:31;93993.06;;;23.61;37.78
20009;BME280;10165;42.662;23.260;2022-08-01T06:56:58;94009.28;;;23.52;38.49
20009;BME280;10165;42.662;23.260;2022-08-01T06:59:24;93996.31;;;23.40;38.79
20009;BME280;10165;42.662;23.260;2022-08-01T07:01:51;93999.44;;;23.70;38.91
20009;BME280;10165;42.662;23.260;2022-08-01T07:04:18;93991.13;;;23.29;38.77
20009;BME280;10165;42.662;23.260;2022-08-01T07:06:45;93988.03;;;23.88;38.65
20009;BME280;10165;42.662;23.260;2022-08-01T07:09:11;93992.13;;;24.09;38.26
20009;BME280;10165;42.662;23.260;2022-08-01T07:11:40;94001.75;;;23.72;38.09
20009;BME280;10165;42.662;23.260;2022-08-01T07:14:07;94010.22;;;23.29;39.31
20009;BME280;10165;42.662;23.260;2022-08-01T07:16:34;94010.59;;;23.76;38.95
20009;BME280;10165;42.662;23.260;2022-08-01T07:19:02;94012.91;;;23.61;39.32
20009;BME280;10165;42.662;23.260;2022-08-01T07:21:28;94000.69;;;23.82;39.79
20009;BME280;10165;42.662;23.260;2022-08-01T07:24:12;94005.81;;;23.80;39.79
20009;BME280;10165;42.662;23.260;2022-08-01T07:26:47;94005.22;;;24.01;39.38
20009;BME280;10165;42.662;23.260;2022-08-01T07:29:28;94005.47;;;23.49;39.43
20009;BME280;10165;42.662;23.260;2022-08-01T07:31:56;94010.06;;;23.81;39.73
20009;BME280;10165;42.662;23.260;2022-08-01T07:34:24;94004.81;;;24.44;38.91
20009;BME280;10165;42.662;23.260;2022-08-01T07:36:52;94018.56;;;24.53;38.34
20009;BME280;10165;42.662;23.260;2022-08-01T07:39:19;94007.47;;;23.90;39.22
20009;BME280;10165;42.662;23.260;2022-08-01T07:41:46;94006.41;;;24.29;38.07
20009;BME280;10165;42.662;23.260;2022-08-01T07:44:33;94002.16;;;23.70;38.05
20009;BME280;10165;42.662;23.260;2022-08-01T07:47:00;94005.78;;;23.51;39.25
20009;BME280;10165;42.662;23.260;2022-08-01T07:49:27;94009.59;;;24.40;38.17
20009;BME280;10165;42.662;23.260;2022-08-01T07:51:54;94008.31;;;24.45;37.01
20009;BME280;10165;42.662;23.260;2022-08-01T07:54:31;94006.72;;;23.28;38.25
20009;BME280;10165;42.662;23.260;2022-08-01T07:57:00;93997.28;;;23.78;38.56
20009;BME280;10165;42.662;23.260;2022-08-01T07:59:27;94007.84;;;24.05;38.20
20009;BME280;10165;42.662;23.260;2022-08-01T08:01:54;94018.47;;;23.25;38.08
20009;BME280;10165;42.662;23.260;2022-08-01T08:04:21;94008.94;;;23.01;39.59
20009;BME280;10165;42.662;23.260;2022-08-01T08:06:48;94025.13;;;23.41;39.05
20009;BME280;10165;42.662;23.260;2022-08-01T08:09:15;94017.53;;;23.16;38.72
20009;BME280;10165;42.662;23.260;2022-08-01T08:11:46;94016.78;;;23.48;38.30
20009;BME280;10165;42.662;23.260;2022-08-01T08:14:15;94025.06;;;23.73;38.75
20009;BME280;10165;42.662;23.260;2022-08-01T08:16:42;94020.84;;;23.23;39.06
20009;BME280;10165;42.662;23.260;2022-08-01T08:19:10;94029.28;;;22.97;39.33
20009;BME280;10165;42.662;23.260;2022-08-01T08:21:38;94022.66;;;23.14;39.21
20009;BME280;10165;42.662;23.260;2022-08-01T08:24:06;94023.41;;;23.47;38.46
20009;BME280;10165;42.662;23.260;2022-08-01T08:26:55;94021.47;;;23.47;39.04
20009;BME280;10165;42.662;23.260;2022-08-01T08:29:22;94012.59;;;23.43;39.51
20009;BME280;10165;42.662;23.260;2022-08-01T08:31:49;94010.50;;;23.79;38.92
20009;BME280;10165;42.662;23.260;2022-08-01T08:34:19;94020.75;;;23.88;38.95
20009;BME280;10165;42.662;23.260;2022-08-01T08:36:47;94018.97;;;23.37;39.20
20009;BME280;10165;42.662;23.260;2022-08-01T08:39:15;94024.06;;;23.96;38.84
20009;BME280;10165;42.662;23.260;2022-08-01T08:41:45;94006.31;;;24.04;38.07
20009;BME280;10165;42.662;23.260;2022-08-01T08:44:15;94005.97;;;24.02;37.92
20009;BME280;10165;42.662;23.260;2022-08-01T08:46:47;94005.13;;;24.46;38.29
20009;BME280;10165;42.662;23.260;2022-08-01T08:49:18;94007.41;;;24.35;37.30
20009;BME280;10165;42.662;23.260;2022-08-01T08:51:49;94008.09;;;23.53;36.71
20009;BME280;10165;42.662;23.260;2022-08-01T08:54:17;94003.41;;;23.21;37.95
20009;BME280;10165;42.662;23.260;2022-08-01T08:56:46;94009.47;;;23.45;37.56
20009;BME280;10165;42.662;23.260;2022-08-01T08:59:13;94002.84;;;23.74;36.93
20009;BME280;10165;42.662;23.260;2022-08-01T09:01:42;93985.59;;;23.49;37.55
20009;BME280;10165;42.662;23.260;2022-08-01T09:04:09;93989.09;;;23.78;37.78
20009;BME280;10165;42.662;23.260;2022-08-01T09:06:36;93991.06;;;24.06;37.97
20009;BME280;10165;42.662;23.260;2022-08-01T09:09:06;93994.72;;;24.28;36.87
20009;BME280;10165;42.662;23.260;2022-08-01T09:11:33;93996.06;;;24.08;36.16
20009;BME280;10165;42.662;23.260;2022-08-01T09:16:34;93987.72;;;23.86;36.67
20009;BME280;10165;42.662;23.260;2022-08-01T09:19:33;93987.84;;;24.49;36.87
20009;BME280;10165;42.662;23.260;2022-08-01T09:22:17;94002.94;;;23.71;38.24
20009;BME280;10165;42.662;23.260;2022-08-01T09:25:06;93981.28;;;24.21;36.39
20009;BME280;10165;42.662;23.260;2022-08-01T09:27:35;93977.25;;;24.26;36.41
20009;BME280;10165;42.662;23.260;2022-08-01T09:30:14;93983.19;;;24.08;36.69
20009;BME280;10165;42.662;23.260;2022-08-01T09:35:32;93984.34;;;24.23;37.82
20009;BME280;10165;42.662;23.260;2022-08-01T09:38:19;93979.91;;;24.55;37.14
20009;BME280;10165;42.662;23.260;2022-08-01T09:43:16;93980.44;;;24.37;38.11
20009;BME280;10165;42.662;23.260;2022-08-01T09:45:44;93974.09;;;24.40;38.53
20009;BME280;10165;42.662;23.260;2022-08-01T09:48:17;93973.19;;;25.19;38.21
20009;BME280;10165;42.662;23.260;2022-08-01T09:50:46;93980.66;;;24.81;38.95
20009;BME280;10165;42.662;23.260;2022-08-01T09:53:14;93981.66;;;24.99;38.48
20009;BME280;10165;42.662;23.260;2022-08-01T09:56:09;93978.78;;;24.40;38.71
20009;BME280;10165;42.662;23.260;2022-08-01T09:58:56;93971.06;;;24.63;37.90
20009;BME280;10165;42.662;23.260;2022-08-01T10:01:48;93960.72;;;25.31;37.02
20009;BME280;10165;42.662;23.260;2022-08-01T10:04:16;93966.31;;;25.14;36.14
20009;BME280;10165;42.662;23.260;2022-08-01T10:06:48;93971.81;;;24.64;37.34
20009;BME280;10165;42.662;23.260;2022-08-01T10:09:32;93960.53;;;25.12;38.08
20009;BME280;10165;42.662;23.260;2022-08-01T10:12:07;93967.06;;;25.28;37.12
20009;BME280;10165;42.662;23.260;2022-08-01T10:14:42;93974.66;;;24.73;37.66
20009;BME280;10165;42.662;23.260;2022-08-01T10:17:14;93971.59;;;24.96;38.02
20009;BME280;10165;42.662;23.260;2022-08-01T10:19:44;93969.72;;;24.81;38.08
20009;BME280;10165;42.662;23.260;2022-08-01T10:22:13;93958.28;;;24.86;36.72
20009;BME280;10165;42.662;23.260;2022-08-01T10:24:47;93955.88;;;24.88;34.94
20009;BME280;10165;42.662;23.260;2022-08-01T10:27:16;93954.94;;;25.29;35.59
20009;BME280;10165;42.662;23.260;2022-08-01T10:30:04;93953.66;;;25.08;35.88
20009;BME280;10165;42.662;23.260;2022-08-01T10:32:47;93960.31;;;25.07;35.46
20009;BME280;10165;42.662;23.260;2022-08-01T10:35:16;93956.84;;;24.68;35.57
20009;BME280;10165;42.662;23.260;2022-08-01T10:38:04;93954.97;;;24.65;36.11
20009;BME280;10165;42.662;23.260;2022-08-01T10:40:36;93948.41;;;25.13;35.53
20009;BME280;10165;42.662;23.260;2022-08-01T10:43:05;93939.09;;;25.58;35.58
20009;BME280;10165;42.662;23.260;2022-08-01T10:45:32;93944.56;;;25.11;35.50
20009;BME280;10165;42.662;23.260;2022-08-01T10:48:06;93952.75;;;25.11;35.48
20009;BME280;10165;42.662;23.260;2022-08-01T10:50:47;93943.84;;;24.85;35.53
20009;BME280;10165;42.662;23.260;2022-08-01T10:53:19;93935.06;;;25.15;36.40
20009;BME280;10165;42.662;23.260;2022-08-01T10:55:58;93937.38;;;25.39;35.84
20009;BME280;10165;42.662;23.260;2022-08-01T11:04:06;93948.09;;;25.46;34.82
20009;BME280;10165;42.662;23.260;2022-08-01T11:06:54;93942.84;;;25.04;35.78
20009;BME280;10165;42.662;23.260;2022-08-01T11:12:08;93936.38;;;25.58;35.46
20009;BME280;10165;42.662;23.260;2022-08-01T11:17:46;93924.59;;;25.01;36.49
20009;BME280;10165;42.662;23.260;2022-08-01T11:28:26;93921.84;;;25.92;35.26
20009;BME280;10165;42.662;23.260;2022-08-01T11:38:45;93931.13;;;25.16;36.37
20009;BME280;10165;42.662;23.260;2022-08-01T11:57:05;93925.72;;;24.91;37.46
20009;BME280;10165;42.662;23.260;2022-08-01T11:59:49;93923.47;;;25.11;36.69
20009;BME280;10165;42.662;23.260;2022-08-01T12:02:33;93917.88;;;25.49;36.25
20009;BME280;10165;42.662;23.260;2022-08-01T12:05:06;93916.78;;;25.81;35.83
20009;BME280;10165;42.662;23.260;2022-08-01T12:07:38;93915.19;;;25.93;35.80
20009;BME280;10165;42.662;23.260;2022-08-01T12:10:10;93917.03;;;25.40;36.10
20009;BME280;10165;42.662;23.260;2022-08-01T12:12:42;93916.38;;;25.48;36.11
20009;BME280;10165;42.662;23.260;2022-08-01T12:15:09;93901.59;;;26.33;35.18
20009;BME280;10165;42.662;23.260;2022-08-01T12:17:50;93910.94;;;26.23;35.27
20009;BME280;10165;42.662;23.260;2022-08-01T12:20:30;93910.19;;;26.00;35.58
20009;BME280;10165;42.662;23.260;2022-08-01T12:23:00;93903.78;;;26.47;35.09
20009;BME280;10165;42.662;23.260;2022-08-01T12:25:27;93909.13;;;26.90;34.70
20009;BME280;10165;42.662;23.260;2022-08-01T12:27:54;93906.03;;;26.79;35.08
20009;BME280;10165;42.662;23.260;2022-08-01T12:30:23;93915.38;;;25.98;34.62
20009;BME280;10165;42.662;23.260;2022-08-01T12:32:53;93914.66;;;25.85;35.66
20009;BME280;10165;42.662;23.260;2022-08-01T12:35:25;93915.63;;;25.69;35.58
20009;BME280;10165;42.662;23.260;2022-08-01T12:37:55;93899.72;;;26.30;34.94
20009;BME280;10165;42.662;23.260;2022-08-01T12:40:27;93906.44;;;26.29;35.92
20009;BME280;10165;42.662;23.260;2022-08-01T12:42:59;93911.13;;;26.06;35.24
20009;BME280;10165;42.662;23.260;2022-08-01T12:45:28;93913.28;;;25.81;34.90
20009;BME280;10165;42.662;23.260;2022-08-01T12:47:55;93904.63;;;25.82;35.38
20009;BME280;10165;42.662;23.260;2022-08-01T12:50:28;93901.44;;;26.14;34.42
20009;BME280;10165;42.662;23.260;2022-08-01T12:52:56;93912.13;;;25.35;35.48
20009;BME280;10165;42.662;23.260;2022-08-01T12:55:25;93912.38;;;25.62;35.57
20009;BME280;10165;42.662;23.260;2022-08-01T12:58:04;93905.56;;;25.88;34.41
20009;BME280;10165;42.662;23.260;2022-08-01T13:00:31;93908.34;;;26.19;34.43
20009;BME280;10165;42.662;23.260;2022-08-01T13:03:10;93899.53;;;26.55;34.37
20009;BME280;10165;42.662;23.260;2022-08-01T13:05:54;93895.09;;;26.88;32.87
20009;BME280;10165;42.662;23.260;2022-08-01T13:11:03;93884.81;;;27.56;32.90
20009;BME280;10165;42.662;23.260;2022-08-01T13:13:44;93890.38;;;26.89;33.25
20009;BME280;10165;42.662;23.260;2022-08-01T13:16:18;93891.34;;;27.40;33.10
20009;BME280;10165;42.662;23.260;2022-08-01T13:19:04;93886.00;;;27.19;33.25
20009;BME280;10165;42.662;23.260;2022-08-01T13:21:31;93896.81;;;26.64;33.67
20009;BME280;10165;42.662;23.260;2022-08-01T13:24:23;93894.16;;;26.82;33.70
20009;BME280;10165;42.662;23.260;2022-08-01T13:26:52;93882.78;;;26.93;33.70
20009;BME280;10165;42.662;23.260;2022-08-01T13:29:31;93890.59;;;27.76;33.61
20009;BME280;10165;42.662;23.260;2022-08-01T13:32:00;93884.19;;;27.25;33.45
20009;BME280;10165;42.662;23.260;2022-08-01T13:34:32;93878.25;;;27.17;33.49
20009;BME280;10165;42.662;23.260;2022-08-01T13:37:00;93874.13;;;27.31;33.19
20009;BME280;10165;42.662;23.260;2022-08-01T13:39:31;93878.25;;;27.17;33.92
20009;BME280;10165;42.662;23.260;2022-08-01T13:42:12;93878.69;;;27.25;33.26
20009;BME280;10165;42.662;23.260;2022-08-01T13:44:44;93872.44;;;27.24;33.37
20009;BME280;10165;42.662;23.260;2022-08-01T13:47:14;93876.81;;;26.85;34.68
20009;BME280;10165;42.662;23.260;2022-08-01T13:49:42;93872.91;;;27.14;34.00
20009;BME280;10165;42.662;23.260;2022-08-01T13:52:09;93876.72;;;27.71;33.21
20009;BME280;10165;42.662;23.260;2022-08-01T13:54:36;93875.94;;;27.16;33.55
20009;BME280;10165;42.662;23.260;2022-08-01T13:57:03;93872.88;;;26.95;33.70
20009;BME280;10165;42.662;23.260;2022-08-01T13:59:30;93876.25;;;27.08;34.23
20009;BME280;10165;42.662;23.260;2022-08-01T14:01:57;93871.38;;;27.31;33.55
20009;BME280;10165;42.662;23.260;2022-08-01T14:04:24;93878.44;;;26.74;34.63
20009;BME280;10165;42.662;23.260;2022-08-01T14:06:51;93874.84;;;26.46;34.67